Skip Navigation Links
NOAA logo - Click to go to the NOAA homepage
NOAA's National Weather Service
Alaska Aviation Weather Unit
  NWS logo - Click to go to the NWS homepage
Left Navbar Graphic     03 AKDT = 11 GMT

   
NOAA is celebrating 200 years of science, service, and stewardship. Visit the NOAA 200th celebration Web site to learn more.
USA.gov is the U.S. Government's official Web portal to all Federal, state and local government Web resources and services.
Facebook
NWS on Facebook

Important Change Regarding the AAWU Web Presence

 

Over the last several months, the AAWU has been working to navigate its webpages to a nationally supported server. Security, as well as other needs, have necessitated the change.  We have been given an extension for the site changeover while we diligently work at addressing feedback received. As of July 14, 2017, aawu.arh.noaa.gov will be discontinued. The new AAWU web address is weather.gov/aawu. It is now live and will run in-parallel with the old site until it is discontinued on July 14, 2017. Please continue to send any feedback or questions regarding the new webpages to nws.ar.aawu.webauthors@noaa.gov.  Thank you for your patience during this time of transition.
AAWU Home :: Display TAF Add Bookmark
SPECI PAKK 230508Z AUTO 02003KT 10SM -RA FEW020 BKN033 OVC040 08/07
     A2974 RMK AO2 P0000=

METAR PAKK 230556Z AUTO 02003KT 10SM OVC044 07/07 A2973 RMK AO2
 RAE26 SLP083 P0000 60001 T00720067 10111 20072 58003=

METAR PAKK 230656Z AUTO 00000KT 10SM BKN026 OVC047 07/06 A2973 RMK AO2
     SLP081 T00670056=

SPECI PAKK 230735Z AUTO 35005KT 10SM BKN030 OVC036 06/04 A2972 RMK
     AO2=

METAR PAKK 230756Z AUTO 34006KT 10SM BKN034 05/04 A2972 RMK AO2 SLP079
     T00500039=

METAR PAKK 230856Z AUTO 36005KT 10SM OVC038 05/04 A2971 RMK AO2
 SLP077 T00500039 401110050 58006=

METAR PAKK 230956Z AUTO 34004KT 10SM OVC036 06/04 A2971 RMK AO2 SLP074
     T00560039=

METAR PAKK 231056Z AUTO 15004KT 10SM OVC038 06/04 A2971 RMK AO2 SLP074
     T00560039=


NOAA's National Weather Service
Alaska Aviation Weather Unit
6930 Sand Lake Road
Anchorage, AK 99502-1845
Disclaimer
Credits
Glossary
Privacy Policy
About Us
Career Opportunities
Contact AAWU Internet Services Site last modified: April, 17th 2012